Time;durP1;ratioP1;P1;durP2;ratioP2;P2;SDS_P1;SDS_P2;PMS_P1;PMS_P2;Temp;Humidity;BMP_temperature;BMP_pressure;BME280_temperature;BME280_humidity;BME280_pressure;Samples;Min_cycle;Max_cycle;Signal;HPM_P1;HPM_P2
2022/03/02 08:33:00;;;;;;;26.60;20.63;;;;;;;2.93;54.08;99602.09;5609732;23;20053;-90
2022/03/02 08:40:57;;;;;;;29.67;22.50;;;;;;;4.20;54.11;99794.06;5243864;23;20062;-90
2022/03/02 08:43:23;;;;;;;27.57;21.67;;;;;;;4.33;53.74;99801.69;5016552;28;20049;-91
2022/03/02 08:45:50;;;;;;;23.63;18.87;;;;;;;4.04;53.69;99697.88;5014262;28;20030;-92
2022/03/02 08:48:18;;;;;;;20.47;17.23;;;;;;;2.82;53.75;99499.53;5011095;28;20038;-94
2022/03/02 08:50:45;;;;;;;22.77;18.43;;;;;;;4.18;53.46;99691.44;5007249;28;20026;-94
2022/03/02 08:53:14;;;;;;;21.37;17.30;;;;;;;5.09;53.19;99840.31;5001824;28;20029;-93
2022/03/02 08:55:41;;;;;;;21.90;19.47;;;;;;;4.43;53.52;99732.78;5018101;28;20040;-92
2022/03/02 08:58:08;;;;;;;18.43;14.57;;;;;;;5.01;52.45;99805.31;4984951;28;20030;-90
2022/03/02 09:00:33;;;;;;;19.57;15.83;;;;;;;5.10;52.35;99815.78;4977575;28;20072;-92
2022/03/02 09:02:59;;;;;;;18.77;16.07;;;;;;;5.19;52.14;99814.13;5001365;28;20046;-94
2022/03/02 09:05:27;;;;;;;22.13;18.10;;;;;;;4.26;51.96;99646.34;5001667;28;20018;-95
2022/03/02 09:07:54;;;;;;;21.87;17.60;;;;;;;5.20;52.19;99822.81;5004424;28;20139;-93
2022/03/02 09:10:19;;;;;;;21.33;17.50;;;;;;;4.76;51.94;99721.16;5023794;28;20010;-95
2022/03/02 09:12:45;;;;;;;22.17;18.77;;;;;;;5.27;52.63;99827.41;5009153;28;20085;-94
2022/03/02 09:15:11;;;;;;;23.37;19.90;;;;;;;5.73;52.22;99894.81;5030726;28;20049;-94
2022/03/02 09:17:36;;;;;;;20.90;18.03;;;;;;;5.14;52.42;99852.16;4997184;28;20068;-93
2022/03/02 09:20:04;;;;;;;21.00;18.47;;;;;;;4.05;52.63;99641.22;5015123;28;20092;-94
2022/03/02 09:22:30;;;;;;;22.10;18.47;;;;;;;4.02;52.92;99672.84;4997086;28;20025;-93
2022/03/02 09:24:57;;;;;;;21.80;19.20;;;;;;;4.04;53.02;99647.41;4994191;28;20158;-90
2022/03/02 09:27:27;;;;;;;27.37;20.80;;;;;;;4.60;53.50;99743.56;5001468;28;20033;-92
2022/03/02 09:29:53;;;;;;;23.43;18.77;;;;;;;5.51;53.66;99883.78;4980819;28;20129;-90
2022/03/02 09:32:20;;;;;;;21.37;17.60;;;;;;;4.35;53.49;99747.47;4981546;28;20030;-92
2022/03/02 09:34:48;;;;;;;22.60;19.60;;;;;;;4.12;53.60;99626.66;5014494;28;20036;-93
2022/03/02 09:37:15;;;;;;;23.73;19.43;;;;;;;5.03;53.32;99761.50;5013736;28;20474;-91
2022/03/02 09:39:42;;;;;;;25.33;20.13;;;;;;;4.71;53.44;99668.44;5013176;28;20062;-92
2022/03/02 09:42:12;;;;;;;20.47;18.00;;;;;;;5.16;52.78;99756.84;5008632;28;20026;-94
2022/03/02 09:44:46;;;;;;;21.27;18.67;;;;;;;4.61;52.86;99601.41;4988710;28;20034;-93
2022/03/02 09:47:24;;;;;;;24.03;19.37;;;;;;;5.74;52.78;99789.03;4977956;28;20041;-91
2022/03/02 09:49:57;;;;;;;24.77;18.87;;;;;;;5.29;52.54;99678.88;4997612;28;20030;-91
2022/03/02 09:52:23;;;;;;;22.20;19.80;;;;;;;5.98;52.47;99738.00;4996057;28;20029;-93
2022/03/02 09:54:54;;;;;;;20.23;17.63;;;;;;;6.73;52.02;99827.94;5020735;28;20137;-93
2022/03/02 09:57:21;;;;;;;21.15;18.73;;;;;;;6.53;51.66;99782.59;5001313;28;20041;-94
2022/03/02 09:59:52;;;;;;;22.73;17.63;;;;;;;6.90;51.49;99819.28;5010739;28;20033;-93
2022/03/02 10:02:40;;;;;;;20.63;17.65;;;;;;;6.88;51.50;99808.13;5006766;28;20112;-93
2022/03/02 10:05:10;;;;;;;21.37;17.80;;;;;;;6.89;51.45;99805.34;4998278;28;20060;-93
2022/03/02 10:07:44;;;;;;;19.07;16.30;;;;;;;7.02;51.44;99818.09;4998746;28;20045;-93
2022/03/02 10:10:11;;;;;;;19.53;16.70;;;;;;;7.22;50.92;99787.28;4999101;28;20030;-93
2022/03/02 10:12:37;;;;;;;18.93;16.07;;;;;;;7.46;50.88;99782.25;4997815;28;20486;-93
2022/03/02 10:15:06;;;;;;;17.93;14.57;;;;;;;7.07;50.23;99710.84;4999081;28;20121;-92
2022/03/02 10:17:38;;;;;;;17.93;14.23;;;;;;;7.77;49.95;99781.81;5005643;28;20092;-93
2022/03/02 10:20:07;;;;;;;16.08;14.38;;;;;;;7.24;48.84;99675.84;5015879;28;20119;-93
2022/03/02 10:23:06;;;;;;;15.60;13.90;;;;;;;7.95;48.67;99767.66;5005304;28;20030;-92
2022/03/02 10:25:49;;;;;;;16.58;13.40;;;;;;;7.59;46.64;99689.91;4987138;28;20117;-93
2022/03/02 10:28:24;;;;;;;16.65;13.15;;;;;;;8.21;48.48;99766.81;4991655;28;20038;-92
2022/03/02 10:31:09;;;;;;;16.30;14.25;;;;;;;7.97;48.44;99714.91;4985216;28;20121;-93
2022/03/02 10:33:38;;;;;;;15.13;12.30;;;;;;;8.29;48.12;99772.13;4997216;28;20064;-91
2022/03/02 10:36:06;;;;;;;14.60;13.02;;;;;;;8.52;47.81;99752.19;5005412;28;20025;-91
2022/03/02 10:39:06;;;;;;;14.70;12.95;;;;;;;8.51;46.52;99771.56;5009737;28;20498;-91
2022/03/02 10:41:39;;;;;;;14.38;12.77;;;;;;;7.60;47.69;99631.94;4956309;28;20506;-93
2022/03/02 10:44:23;;;;;;;14.20;12.80;;;;;;;8.52;46.57;99752.19;4998236;28;20017;-93
2022/03/02 10:47:01;;;;;;;12.43;11.15;;;;;;;8.21;47.20;99720.31;4992987;28;20029;-93
2022/03/02 10:49:27;;;;;;;14.85;12.95;;;;;;;8.42;47.31;99742.75;4981591;28;20038;-94
2022/03/02 10:51:55;;;;;;;15.80;12.50;;;;;;;8.15;47.20;99670.94;4987733;28;20030;-93
2022/03/02 10:54:24;;;;;;;13.55;12.07;;;;;;;8.10;47.07;99627.69;4998605;28;20502;-93
2022/03/02 10:56:53;;;;;;;14.55;13.00;;;;;;;9.09;46.85;99730.41;4987801;28;20033;-92
2022/03/02 10:59:23;;;;;;;13.75;12.30;;;;;;;8.68;45.47;99642.66;5013691;28;20111;-93
2022/03/02 11:01:50;;;;;;;16.33;12.80;;;;;;;8.54;45.73;99610.72;4996206;28;20041;-92
2022/03/02 11:04:19;;;;;;;13.73;12.23;;;;;;;9.34;45.44;99729.44;4997411;28;20026;-93
2022/03/02 11:06:45;;;;;;;12.52;10.80;;;;;;;9.40;45.75;99728.78;4997488;28;20038;-93
2022/03/02 11:09:11;;;;;;;14.05;12.32;;;;;;;8.09;45.53;99547.97;4991511;28;20761;-91
2022/03/02 11:11:37;;;;;;;14.85;13.35;;;;;;;8.58;45.29;99650.72;4996696;28;20033;-90
2022/03/02 11:14:09;;;;;;;12.95;11.57;;;;;;;8.75;45.24;99631.31;4999820;28;20038;-90
2022/03/02 11:16:34;;;;;;;12.23;11.02;;;;;;;8.61;45.10;99629.31;4996574;28;20022;-91
2022/03/02 11:19:11;;;;;;;12.73;11.38;;;;;;;7.97;45.03;99542.22;4988655;28;20486;-90
2022/03/02 11:21:39;;;;;;;9.38;8.38;;;;;;;7.53;44.69;99486.41;4995782;28;20026;-91
2022/03/02 11:24:06;;;;;;;10.50;9.40;;;;;;;8.61;44.71;99710.91;5013115;28;20026;-92
2022/03/02 11:26:35;;;;;;;11.40;9.90;;;;;;;7.50;45.56;99565.56;4997568;28;20030;-92
2022/03/02 11:29:06;;;;;;;12.88;11.60;;;;;;;8.32;45.35;99679.72;5014781;28;20034;-91
2022/03/02 11:31:45;;;;;;;13.00;11.60;;;;;;;7.85;45.58;99650.44;4995138;28;20022;-92
2022/03/02 11:34:23;;;;;;;13.40;11.38;;;;;;;8.19;46.64;99676.72;4984941;28;20573;-93
2022/03/02 11:36:55;;;;;;;12.95;11.23;;;;;;;8.08;45.92;99672.56;4997559;28;20124;-94
2022/03/02 11:39:24;;;;;;;15.93;13.43;;;;;;;8.02;46.07;99677.63;4997749;28;20037;-94
2022/03/02 11:41:53;;;;;;;17.25;14.07;;;;;;;7.29;45.96;99594.81;5000602;28;20041;-92
2022/03/02 11:44:40;;;;;;;13.35;10.45;;;;;;;7.18;45.75;99581.13;4995052;28;20030;-92
2022/03/02 11:47:11;;;;;;;14.48;12.02;;;;;;;7.19;46.23;99590.63;4976526;28;20117;-91
2022/03/02 11:49:54;;;;;;;13.02;11.15;;;;;;;7.73;45.70;99630.69;4979616;28;20030;-94
2022/03/02 11:52:21;;;;;;;11.38;9.45;;;;;;;7.93;46.38;99650.47;4979865;28;20029;-91
2022/03/02 11:54:48;;;;;;;10.88;9.65;;;;;;;8.05;45.88;99654.47;4994588;28;20034;-91
2022/03/02 11:57:16;;;;;;;10.07;9.00;;;;;;;8.20;45.46;99647.63;4994838;28;20030;-91
2022/03/02 11:59:41;;;;;;;12.18;10.55;;;;;;;8.47;45.63;99638.69;4995728;28;20022;-92
2022/03/02 12:02:24;;;;;;;11.70;10.35;;;;;;;7.96;45.21;99545.81;4996110;28;20037;-92
2022/03/02 12:05:06;;;;;;;10.60;9.48;;;;;;;8.44;44.94;99611.88;4993349;28;20549;-92
2022/03/02 12:07:37;;;;;;;10.40;9.23;;;;;;;7.45;45.40;99462.75;4998909;28;20042;-91
2022/03/02 12:10:14;;;;;;;10.88;9.63;;;;;;;8.44;45.66;99638.19;4987996;28;20044;-91
2022/03/02 12:12:43;;;;;;;9.90;8.77;;;;;;;8.04;45.22;99579.19;4993670;28;20561;-91
2022/03/02 12:15:09;;;;;;;11.05;9.65;;;;;;;8.34;45.15;99621.72;4983772;28;20586;-91
2022/03/02 12:17:36;;;;;;;11.68;10.35;;;;;;;7.34;45.41;99474.34;4993517;28;20029;-91
2022/03/02 12:20:08;;;;;;;13.35;11.95;;;;;;;8.27;44.98;99603.09;4995641;28;20033;-91
2022/03/02 12:22:39;;;;;;;9.63;8.63;;;;;;;8.25;45.58;99607.69;4992595;28;20029;-92
2022/03/02 12:25:07;;;;;;;10.38;9.38;;;;;;;8.19;45.01;99596.03;4995200;28;20495;-92
2022/03/02 12:27:32;;;;;;;10.00;9.00;;;;;;;7.41;45.07;99505.22;4994914;28;20033;-92
2022/03/02 12:30:05;;;;;;;10.20;8.15;;;;;;;8.07;44.75;99602.53;4998265;28;20034;-91
2022/03/02 12:32:36;;;;;;;8.98;8.07;;;;;;;8.13;44.24;99601.91;4994858;28;20029;-92
2022/03/02 12:35:05;;;;;;;9.32;8.43;;;;;;;7.16;44.87;99446.53;4994620;28;20418;-92
2022/03/02 12:37:31;;;;;;;8.23;7.20;;;;;;;8.22;44.35;99647.47;4995045;28;20091;-92
2022/03/02 12:39:57;;;;;;;8.52;7.72;;;;;;;7.28;44.07;99466.28;4952565;28;1214585;-92
2022/03/02 12:42:23;;;;;;;9.27;8.27;;;;;;;8.08;44.36;99601.56;4991923;28;20164;-92
2022/03/02 12:44:54;;;;;;;10.00;8.40;;;;;;;8.09;43.96;99576.09;4995474;28;20499;-92
2022/03/02 12:47:22;;;;;;;9.80;8.43;;;;;;;7.82;44.36;99549.06;5009646;28;20034;-92
2022/03/02 12:49:52;;;;;;;9.02;8.13;;;;;;;8.14;43.98;99571.97;4996635;28;20091;-92
2022/03/02 12:52:20;;;;;;;7.65;6.88;;;;;;;7.58;43.91;99471.00;4979976;28;20128;-92
2022/03/02 12:54:48;;;;;;;8.15;7.40;;;;;;;7.83;43.90;99521.81;5025350;28;20041;-92
2022/03/02 12:57:17;;;;;;;7.35;6.65;;;;;;;8.05;43.96;99536.13;5036241;28;20006;-92
2022/03/02 12:59:44;;;;;;;7.45;6.75;;;;;;;8.15;43.41;99555.22;5003244;28;20046;-92
2022/03/02 13:02:16;;;;;;;9.32;7.82;;;;;;;7.76;43.58;99459.53;5011598;28;20025;-92
2022/03/02 13:04:54;;;;;;;8.55;7.70;;;;;;;7.36;43.32;99373.56;5018807;28;20033;-91
2022/03/02 13:07:35;;;;;;;8.75;7.70;;;;;;;8.70;42.56;99574.88;4997807;28;20108;-92
2022/03/02 13:10:08;;;;;;;14.43;11.05;;;;;;;8.80;43.51;99572.91;4995087;28;20040;-93
2022/03/02 13:12:38;;;;;;;9.75;8.75;;;;;;;8.82;43.01;99570.91;4995611;28;20037;-91
2022/03/02 13:15:16;;;;;;;8.38;7.50;;;;;;;8.84;42.80;99566.31;4994355;28;20455;-92
2022/03/02 13:17:41;;;;;;;9.38;8.02;;;;;;;8.73;42.67;99550.84;4976249;28;20101;-92
2022/03/02 13:20:17;;;;;;;6.88;6.18;;;;;;;8.00;42.38;99438.53;4985084;28;20018;-92
2022/03/02 13:22:43;;;;;;;10.43;8.57;;;;;;;8.10;42.81;99470.72;4984036;28;20598;-92
2022/03/02 13:25:10;;;;;;;9.23;8.27;;;;;;;8.74;43.00;99571.75;5007424;28;20017;-92
2022/03/02 13:28:10;;;;;;;9.65;7.97;;;;;;;8.59;42.58;99563.69;5015033;28;20030;-91
2022/03/02 13:30:36;;;;;;;7.78;6.97;;;;;;;8.46;42.95;99568.63;5003041;28;20054;-92
2022/03/02 13:33:08;;;;;;;7.85;7.15;;;;;;;8.39;43.09;99564.19;4999373;28;20026;-92
2022/03/02 13:35:37;;;;;;;8.10;7.30;;;;;;;7.91;43.17;99527.06;4996993;28;20030;-92
2022/03/02 13:38:12;;;;;;;8.75;7.65;;;;;;;7.61;43.48;99470.69;4976981;28;20271;-92
2022/03/02 13:40:44;;;;;;;8.05;7.25;;;;;;;7.97;43.21;99530.88;4973954;28;20056;-91
2022/03/02 13:43:12;;;;;;;8.80;7.53;;;;;;;8.28;43.27;99566.13;4989492;28;20026;-92
2022/03/02 13:45:43;;;;;;;8.35;7.55;;;;;;;7.79;43.20;99490.75;4990160;28;20053;-92
2022/03/02 13:48:23;;;;;;;6.82;6.18;;;;;;;8.18;42.56;99568.06;4990395;28;20034;-91
2022/03/02 13:50:58;;;;;;;6.57;5.97;;;;;;;8.18;42.87;99556.72;4989997;28;20526;-92
2022/03/02 13:53:41;;;;;;;7.65;6.85;;;;;;;7.07;42.87;99427.31;4991506;28;20515;-92
2022/03/02 13:56:09;;;;;;;6.70;6.00;;;;;;;7.63;43.20;99500.25;4994240;28;20034;-92
2022/03/02 13:58:37;;;;;;;6.43;5.82;;;;;;;7.32;43.08;99436.09;4991116;28;20030;-91
2022/03/02 14:01:12;;;;;;;7.55;6.75;;;;;;;8.05;43.50;99577.38;4991006;28;20050;-91
2022/03/02 14:03:43;;;;;;;8.02;7.22;;;;;;;8.00;43.29;99548.94;4991465;28;20052;-91
2022/03/02 14:06:09;;;;;;;8.57;7.65;;;;;;;7.74;43.61;99514.06;4991344;28;20030;-91
2022/03/02 14:08:45;;;;;;;7.40;6.70;;;;;;;7.19;43.25;99433.09;4991427;28;20034;-90
2022/03/02 14:11:45;;;;;;;8.90;8.00;;;;;;;7.20;43.96;99419.81;4991110;28;20045;-92
2022/03/02 14:14:17;;;;;;;10.25;8.77;;;;;;;7.92;44.08;99533.97;4992644;28;20514;-92
2022/03/02 14:17:02;;;;;;;9.02;8.13;;;;;;;8.01;43.94;99524.31;4993310;28;20030;-93
2022/03/02 14:19:33;;;;;;;12.60;9.68;;;;;;;7.89;43.74;99518.53;4972211;28;20042;-92
2022/03/02 14:22:03;;;;;;;14.27;11.15;;;;;;;7.86;44.10;99513.59;4972254;28;20034;-92
2022/03/02 14:24:32;;;;;;;10.35;9.23;;;;;;;7.95;43.80;99519.69;4986063;28;20034;-91
2022/03/02 14:27:00;;;;;;;8.20;6.88;;;;;;;7.86;43.55;99518.84;4991675;28;20034;-91
2022/03/02 14:29:28;;;;;;;8.88;7.28;;;;;;;7.34;44.01;99455.97;4991105;28;20045;-92
2022/03/02 14:32:20;;;;;;;9.30;8.40;;;;;;;7.83;43.71;99558.59;4990964;28;20109;-91
2022/03/02 14:34:57;;;;;;;11.15;9.10;;;;;;;7.57;43.93;99518.44;4998750;28;20038;-91
2022/03/02 14:37:31;;;;;;;9.95;8.95;;;;;;;7.58;44.29;99483.31;4994497;28;20096;-92
2022/03/02 14:39:56;;;;;;;9.85;8.88;;;;;;;7.75;43.97;99516.53;4993598;28;20038;-92
2022/03/02 14:42:23;;;;;;;9.55;8.38;;;;;;;7.71;44.24;99522.25;4994625;28;20036;-92
2022/03/02 14:45:05;;;;;;;11.52;10.32;;;;;;;7.60;44.41;99533.91;4994489;28;20034;-91
2022/03/02 14:47:30;;;;;;;11.70;9.60;;;;;;;6.82;44.98;99423.75;4994336;28;20135;-91
2022/03/02 14:49:56;;;;;;;13.40;10.63;;;;;;;7.29;44.96;99507.31;4993737;28;20503;-90
2022/03/02 14:52:32;;;;;;;13.38;11.27;;;;;;;7.41;45.12;99507.84;4995234;28;20050;-93
2022/03/02 14:54:58;;;;;;;16.83;12.98;;;;;;;7.38;45.28;99509.00;4977338;28;20403;-92
2022/03/02 14:57:23;;;;;;;14.50;11.68;;;;;;;7.01;45.38;99468.13;4980353;28;20023;-91
2022/03/02 14:59:51;;;;;;;11.45;9.60;;;;;;;7.31;45.29;99513.22;4994259;28;20045;-92
2022/03/02 15:02:17;;;;;;;10.68;9.15;;;;;;;6.27;45.41;99345.41;4982115;28;20145;-92
2022/03/02 15:04:57;;;;;;;10.98;9.80;;;;;;;7.28;45.69;99508.28;4994145;28;20038;-92
2022/03/02 15:07:38;;;;;;;12.63;10.60;;;;;;;6.61;45.19;99411.00;4995350;28;20030;-92
2022/03/02 15:10:13;;;;;;;13.30;11.23;;;;;;;6.71;45.65;99438.97;4994530;28;20034;-91
2022/03/02 15:14:58;;;;;;;16.90;12.73;;;;;;;7.20;46.23;99511.72;4991617;28;20053;-91
2022/03/02 15:15:31;;;;;;;14.15;11.35;;;;;;;7.14;46.48;99507.09;5007258;28;20065;-93
2022/03/02 15:17:58;;;;;;;13.23;11.15;;;;;;;7.15;46.24;99507.91;4995191;28;20030;-93
2022/03/02 15:20:24;;;;;;;15.38;12.10;;;;;;;6.89;46.20;99466.78;4992359;28;20049;-92
2022/03/02 15:22:56;;;;;;;16.10;12.07;;;;;;;7.13;45.92;99509.88;4993658;28;20070;-92
2022/03/02 15:25:23;;;;;;;13.43;11.32;;;;;;;6.80;46.53;99454.59;4995616;28;20123;-94
2022/03/02 15:28:03;;;;;;;15.55;13.02;;;;;;;7.08;47.03;99501.63;4992717;28;20030;-90
2022/03/02 15:30:34;;;;;;;39.00;27.05;;;;;;;6.94;46.75;99496.00;4975785;28;20023;-95
2022/03/02 15:33:09;;;;;;;30.30;22.25;;;;;;;6.64;46.99;99457.09;4983034;28;20375;-92
2022/03/02 15:35:36;;;;;;;21.70;16.15;;;;;;;5.93;47.28;99373.34;4977110;28;20121;-92
2022/03/02 15:38:11;;;;;;;24.45;17.98;;;;;;;6.47;47.33;99439.59;4993282;28;20030;-92
2022/03/02 15:40:38;;;;;;;22.10;17.70;;;;;;;6.08;47.42;99392.81;4993656;28;20051;-91
2022/03/02 15:43:15;;;;;;;22.60;17.33;;;;;;;6.54;47.67;99485.22;4993562;28;20026;-92
2022/03/02 15:45:42;;;;;;;28.73;20.25;;;;;;;6.63;47.90;99493.00;4993102;28;20463;-92
2022/03/02 15:48:14;;;;;;;26.85;21.08;;;;;;;6.61;48.48;99534.28;4993080;28;20030;-93
2022/03/02 15:50:43;;;;;;;33.10;24.00;;;;;;;5.65;48.10;99338.56;4983390;28;20023;-92
2022/03/02 15:53:12;;;;;;;30.50;22.40;;;;;;;6.37;48.37;99466.75;5004244;28;20554;-92
2022/03/02 15:55:42;;;;;;;30.40;23.15;;;;;;;6.36;48.94;99452.00;4994866;28;20030;-92
2022/03/02 15:58:14;;;;;;;31.42;23.70;;;;;;;6.57;48.51;99477.88;5002653;28;20109;-91
2022/03/02 16:00:42;;;;;;;29.42;22.67;;;;;;;6.74;48.74;99515.56;5013056;28;20053;-92
2022/03/02 16:03:14;;;;;;;25.55;20.23;;;;;;;6.75;48.18;99506.72;4993630;28;20031;-91
2022/03/02 16:05:43;;;;;;;;;;;;;;;6.65;48.77;99513.81;4996180;28;20055;-92
2022/03/02 16:08:16;;;;;;;24.20;19.70;;;;;;;5.66;48.69;99398.63;4994683;28;19956;-92
2022/03/02 16:11:21;;;;;;;25.73;20.02;;;;;;;6.41;49.06;99463.81;4993596;28;20022;-93
2022/03/02 16:14:10;;;;;;;28.35;22.38;;;;;;;6.08;49.51;99413.78;4977275;28;20038;-90
2022/03/02 16:16:39;;;;;;;24.20;19.30;;;;;;;6.50;49.04;99497.00;4993145;28;20041;-90
2022/03/02 16:19:14;;;;;;;22.92;18.23;;;;;;;6.02;49.10;99424.88;4994486;28;20092;-90
2022/03/02 16:21:45;;;;;;;22.50;17.23;;;;;;;6.16;49.34;99461.03;4992792;28;20484;-93
2022/03/02 16:24:33;;;;;;;21.77;18.23;;;;;;;6.59;49.03;99509.19;4993402;28;20030;-92
2022/03/02 16:27:23;;;;;;;19.50;16.77;;;;;;;6.58;49.76;99497.88;4994166;28;20542;-92
2022/03/02 16:29:54;;;;;;;20.33;17.20;;;;;;;5.30;49.33;99305.34;4992988;28;20030;-93
2022/03/02 16:32:23;;;;;;;21.83;17.48;;;;;;;6.23;49.74;99458.63;4995519;28;20030;-92
2022/03/02 16:34:50;;;;;;;26.30;19.30;;;;;;;6.27;49.50;99473.06;4992794;28;20038;-93
2022/03/02 16:37:18;;;;;;;28.92;20.20;;;;;;;6.20;49.35;99464.97;4992806;28;20026;-93
2022/03/02 16:39:44;;;;;;;28.30;20.70;;;;;;;5.52;49.42;99346.78;4992995;28;20519;-92
2022/03/02 16:42:10;;;;;;;23.38;18.35;;;;;;;4.31;49.67;99158.88;4992607;28;20061;-95
2022/03/02 16:44:36;;;;;;;22.60;17.42;;;;;;;5.32;49.95;99330.41;4994612;28;20031;-94
2022/03/02 16:47:07;;;;;;;22.30;17.42;;;;;;;6.50;49.96;99512.72;4992702;28;20093;-91
2022/03/02 16:49:33;;;;;;;27.50;20.73;;;;;;;5.79;50.13;99392.19;4992875;28;20547;-94
2022/03/02 16:51:59;;;;;;;25.08;19.52;;;;;;;5.41;50.12;99349.63;4992407;28;20023;-94
2022/03/02 16:54:25;;;;;;;25.05;20.63;;;;;;;5.74;50.26;99401.31;4994011;28;20030;-95
2022/03/02 16:56:51;;;;;;;28.48;22.52;;;;;;;6.19;50.54;99473.81;4991752;28;20046;-93
2022/03/02 16:59:17;;;;;;;29.50;22.45;;;;;;;5.63;50.48;99383.22;4992493;28;20065;-94
2022/03/02 17:01:42;;;;;;;27.85;23.35;;;;;;;5.35;50.75;99324.06;4992617;28;20030;-94
2022/03/02 17:04:08;;;;;;;30.60;23.20;;;;;;;6.30;50.48;99499.81;4993405;28;20450;-94
2022/03/02 17:06:46;;;;;;;27.00;18.87;;;;;;;5.99;50.80;99435.66;4992483;28;20084;-94
2022/03/02 17:09:13;;;;;;;22.23;16.95;;;;;;;6.35;50.88;99500.16;4991819;28;20030;-94
2022/03/02 17:11:39;;;;;;;19.98;15.18;;;;;;;5.18;51.10;99324.84;4992299;28;20227;-94
2022/03/02 17:14:05;;;;;;;20.23;15.37;;;;;;;6.04;51.15;99467.47;4993722;28;20062;-94
2022/03/02 17:16:31;;;;;;;21.20;16.48;;;;;;;5.30;51.51;99361.16;4992472;28;20569;-93
2022/03/02 17:18:56;;;;;;;17.40;12.90;;;;;;;5.26;51.44;99345.91;4995940;28;20030;-94
2022/03/02 17:21:22;;;;;;;17.30;13.77;;;;;;;6.07;51.86;99459.31;5004511;28;20028;-94
2022/03/02 17:23:48;;;;;;;23.43;15.90;;;;;;;6.28;51.92;99483.41;5006372;28;20041;-93
2022/03/02 17:26:14;;;;;;;20.70;16.45;;;;;;;5.02;51.74;99288.88;5003770;28;20023;-92
2022/03/02 17:28:40;;;;;;;25.47;18.57;;;;;;;5.68;51.85;99422.88;4994091;28;20041;-92
2022/03/02 17:31:06;;;;;;;26.55;20.15;;;;;;;5.72;52.14;99446.97;4998751;28;20022;-94
2022/03/02 17:33:35;;;;;;;23.93;18.47;;;;;;;5.37;52.20;99361.38;5002566;28;20022;-93
2022/03/02 17:36:01;;;;;;;22.93;17.40;;;;;;;5.79;52.35;99455.06;4991786;28;20495;-93
2022/03/02 17:38:26;;;;;;;22.63;17.02;;;;;;;5.43;52.76;99389.59;4991886;28;20034;-91
2022/03/02 17:40:53;;;;;;;22.83;18.70;;;;;;;4.75;52.47;99331.59;4993308;28;20053;-91
2022/03/02 17:43:19;;;;;;;23.43;19.10;;;;;;;5.38;53.16;99360.41;4991680;28;20018;-93
2022/03/02 17:45:45;;;;;;;23.90;18.70;;;;;;;5.05;53.07;99333.06;4976036;28;20052;-93
2022/03/02 17:48:10;;;;;;;24.42;19.15;;;;;;;6.09;52.78;99482.75;4975927;28;20036;-91
2022/03/02 17:50:36;;;;;;;28.20;19.93;;;;;;;5.16;53.05;99342.50;4976655;28;20034;-92
2022/03/02 17:53:01;;;;;;;25.70;20.20;;;;;;;6.08;53.13;99475.84;4975827;28;20150;-89
2022/03/02 17:55:27;;;;;;;31.63;23.20;;;;;;;5.69;53.32;99421.91;4982619;28;20030;-92
2022/03/02 17:57:52;;;;;;;29.27;22.17;;;;;;;5.97;52.97;99482.16;4987776;28;20069;-92
2022/03/02 18:00:18;;;;;;;34.38;25.98;;;;;;;5.58;53.46;99437.84;4990845;28;20021;-92
2022/03/02 18:02:44;;;;;;;35.63;26.47;;;;;;;6.01;53.49;99480.88;4977989;28;20028;-91
2022/03/02 18:05:09;;;;;;;32.80;23.70;;;;;;;5.37;53.12;99380.53;4977101;28;20030;-91
2022/03/02 18:07:35;;;;;;;31.53;23.13;;;;;;;5.21;53.56;99366.47;4979065;28;20038;-92
2022/03/02 18:10:02;;;;;;;31.83;23.73;;;;;;;5.43;53.46;99411.34;4981646;28;20030;-91
2022/03/02 18:12:29;;;;;;;34.13;24.97;;;;;;;5.37;53.56;99411.94;4979271;28;20033;-92
2022/03/02 18:14:55;;;;;;;35.70;25.97;;;;;;;5.07;53.59;99358.13;4979608;28;20113;-90
2022/03/02 18:17:21;;;;;;;36.07;26.70;;;;;;;5.12;53.61;99352.44;4982504;28;20032;-91
2022/03/02 18:19:46;;;;;;;32.83;25.00;;;;;;;4.37;53.62;99260.22;4980233;28;20109;-92
2022/03/02 18:22:13;;;;;;;32.33;23.83;;;;;;;4.81;53.27;99293.56;4979292;28;20023;-92
2022/03/02 18:24:40;;;;;;;36.80;27.57;;;;;;;5.60;53.89;99445.56;4979077;28;20050;-91
2022/03/02 18:27:05;;;;;;;36.17;27.63;;;;;;;5.30;53.89;99387.34;4986130;28;20044;-93
2022/03/02 18:29:32;;;;;;;34.67;25.80;;;;;;;5.55;53.99;99408.50;4979099;28;20030;-93
2022/03/02 18:32:02;;;;;;;31.30;26.37;;;;;;;5.89;53.99;99463.69;4979129;28;20030;-94
2022/03/02 18:34:30;;;;;;;31.23;25.60;;;;;;;5.12;54.03;99355.06;4978863;28;20084;-93
2022/03/02 18:36:56;;;;;;;30.40;25.10;;;;;;;5.22;54.04;99389.88;4979864;28;20470;-93
2022/03/02 18:39:28;;;;;;;34.07;26.80;;;;;;;5.40;53.85;99392.50;4978468;28;20475;-93
2022/03/02 18:41:54;;;;;;;31.88;26.63;;;;;;;5.86;53.72;99503.28;4978399;28;20042;-93
2022/03/02 18:44:21;;;;;;;30.27;25.33;;;;;;;5.85;53.81;99467.56;4979736;28;20030;-92
2022/03/02 18:46:49;;;;;;;34.10;27.73;;;;;;;5.81;54.11;99482.75;4978626;28;20030;-93
2022/03/02 18:49:19;;;;;;;34.67;26.07;;;;;;;5.02;54.30;99335.97;4978826;28;20065;-92
2022/03/02 18:51:44;;;;;;;33.73;27.37;;;;;;;5.80;54.44;99475.06;4984025;28;20022;-92
2022/03/02 18:54:10;;;;;;;41.60;30.37;;;;;;;4.23;54.72;99249.41;4979354;28;20030;-93
2022/03/02 18:56:36;;;;;;;40.10;29.93;;;;;;;5.71;54.44;99474.16;4978720;28;20480;-93
2022/03/02 18:59:04;;;;;;;40.00;31.30;;;;;;;4.63;54.82;99328.34;4979383;28;20073;-91
2022/03/02 19:01:31;;;;;;;42.93;33.57;;;;;;;4.93;54.61;99356.00;4978597;28;20096;-93
2022/03/02 19:03:58;;;;;;;43.53;33.80;;;;;;;5.65;54.85;99475.56;4978348;28;20033;-93
2022/03/02 19:06:24;;;;;;;39.47;31.47;;;;;;;4.51;54.75;99294.72;4980478;28;20033;-91
2022/03/02 19:08:50;;;;;;;44.80;34.33;;;;;;;4.39;55.50;99313.16;4978395;28;20032;-93
2022/03/02 19:11:15;;;;;;;40.07;31.27;;;;;;;5.13;55.46;99432.59;4978402;28;20109;-92
2022/03/02 19:13:41;;;;;;;50.30;40.87;;;;;;;4.06;55.40;99232.72;4995804;28;20030;-92
2022/03/02 19:16:07;;;;;;;45.90;36.83;;;;;;;4.50;55.41;99327.03;4980047;28;20084;-92
2022/03/02 19:18:33;;;;;;;44.87;34.80;;;;;;;4.56;55.44;99342.16;4979055;28;20028;-90
2022/03/02 19:21:01;;;;;;;46.10;35.80;;;;;;;4.42;55.37;99318.09;4978363;28;20030;-91
2022/03/02 19:23:30;;;;;;;40.60;33.60;;;;;;;4.94;55.27;99427.47;4980828;28;20073;-92
2022/03/02 19:25:57;;;;;;;41.33;32.77;;;;;;;4.26;55.65;99330.97;4996452;28;20527;-91
2022/03/02 19:28:23;;;;;;;42.70;33.27;;;;;;;4.41;55.79;99337.38;4979116;28;20053;-91
2022/03/02 19:30:51;;;;;;;46.37;35.07;;;;;;;5.46;55.49;99509.72;4979628;28;20479;-90
2022/03/02 19:33:16;;;;;;;50.37;36.27;;;;;;;4.29;55.92;99341.13;4996881;28;20027;-91
2022/03/02 19:35:41;;;;;;;48.37;36.03;;;;;;;4.60;55.56;99394.00;4979349;28;20022;-90
2022/03/02 19:39:55;;;;;;;45.70;34.77;;;;;;;4.53;55.67;99384.28;4980785;28;20031;-91
2022/03/02 19:40:52;;;;;;;45.57;37.40;;;;;;;4.66;56.07;99429.22;4996510;28;20046;-91
2022/03/02 19:43:18;;;;;;;47.63;35.97;;;;;;;5.42;55.79;99505.75;4980792;28;20097;-90
2022/03/02 19:45:50;;;;;;;80.13;56.13;;;;;;;5.40;56.42;99515.56;4982946;28;20117;-91
2022/03/02 19:48:16;;;;;;;;;;;;;;;5.27;56.69;99509.84;4986039;28;20033;-91
2022/03/02 19:50:43;;;;;;;96.17;67.03;;;;;;;4.83;56.22;99448.56;4982973;28;19914;-90
2022/03/02 19:53:12;;;;;;;96.60;68.67;;;;;;;5.33;56.33;99520.53;4987584;28;20023;-90
2022/03/02 19:55:40;;;;;;;93.27;65.67;;;;;;;4.34;56.42;99385.97;5008360;28;20031;-89
2022/03/02 19:58:06;;;;;;;81.07;58.63;;;;;;;4.68;56.44;99427.28;5011998;28;20037;-89
2022/03/02 20:00:33;;;;;;;61.27;44.27;;;;;;;3.76;56.59;99281.63;5016214;28;20049;-89
2022/03/02 20:02:59;;;;;;;47.37;35.90;;;;;;;4.69;56.63;99450.69;5018736;28;20035;-90
2022/03/02 20:05:25;;;;;;;38.53;30.30;;;;;;;4.28;56.52;99385.69;5001622;28;20040;-87
2022/03/02 20:07:51;;;;;;;31.67;24.90;;;;;;;4.21;56.23;99359.31;5018595;28;20036;-89
2022/03/02 20:10:16;;;;;;;30.67;25.23;;;;;;;5.13;56.67;99541.69;5002149;28;20040;-89
2022/03/02 20:12:49;;;;;;;41.30;30.87;;;;;;;2.49;56.38;99134.94;4999626;28;20131;-88
2022/03/02 20:18:01;;;;;;;64.07;46.77;;;;;;;4.32;56.67;99384.44;5202505;23;20034;-88
2022/03/02 20:20:27;;;;;;;67.73;49.97;;;;;;;3.22;56.89;99190.91;5016486;28;20061;-91
2022/03/02 20:25:35;;;;;;;62.40;44.97;;;;;;;5.14;56.81;99538.91;5101973;23;20070;-89